Time;durP1;ratioP1;P1;durP2;ratioP2;P2;SDS_P1;SDS_P2;PMS_P1;PMS_P2;Temp;Humidity;BMP_temperature;BMP_pressure;BME280_temperature;BME280_humidity;BME280_pressure;Samples;Min_cycle;Max_cycle;Signal;HPM_P1;HPM_P2
2022/07/26 00:00:46;;;;;;;5.73;1.97;;;;;;;18.36;74.53;101214.16;5114012;28;20472;-57
2022/07/26 00:03:12;;;;;;;6.15;2.10;;;;;;;18.36;74.99;101227.41;5114129;28;20258;-57
2022/07/26 00:05:37;;;;;;;3.53;1.73;;;;;;;18.37;75.11;101223.84;5113669;28;20035;-57
2022/07/26 00:08:10;;;;;;;6.35;1.85;;;;;;;18.37;74.97;101228.28;5113929;28;20104;-58
2022/07/26 00:10:48;;;;;;;4.60;1.60;;;;;;;18.43;74.46;101222.75;5113883;28;20061;-58
2022/07/26 00:13:16;;;;;;;6.10;2.00;;;;;;;18.41;75.14;101224.59;5113853;28;20058;-57
2022/07/26 00:15:42;;;;;;;9.50;2.28;;;;;;;18.47;75.00;101218.19;5113391;28;20108;-58
2022/07/26 00:18:08;;;;;;;7.63;2.63;;;;;;;18.39;74.98;101216.69;5113748;28;20032;-58
2022/07/26 00:20:33;;;;;;;7.57;1.80;;;;;;;18.43;74.88;101222.75;5113462;28;20096;-57
2022/07/26 00:22:59;;;;;;;6.55;1.95;;;;;;;18.44;74.66;101217.38;5113658;28;20140;-58
2022/07/26 00:25:24;;;;;;;5.72;1.70;;;;;;;18.41;74.82;101217.50;5113591;28;20066;-58
2022/07/26 00:27:50;;;;;;;6.20;1.70;;;;;;;18.42;75.06;101221.00;5113463;28;20065;-58
2022/07/26 00:30:15;;;;;;;6.57;1.90;;;;;;;18.32;75.17;101225.81;5113184;28;20031;-59
2022/07/26 00:32:41;;;;;;;6.47;1.80;;;;;;;18.27;75.75;101222.47;5113161;28;20415;-58
2022/07/26 00:35:06;;;;;;;7.65;1.80;;;;;;;18.18;76.31;101229.94;5113301;28;20114;-58
2022/07/26 00:37:32;;;;;;;7.43;1.90;;;;;;;18.16;76.13;101235.28;5112701;28;20042;-57
2022/07/26 00:39:57;;;;;;;9.02;2.30;;;;;;;18.20;76.12;101226.28;5113509;28;20031;-57
2022/07/26 00:42:23;;;;;;;6.90;2.10;;;;;;;18.17;76.54;101226.44;5113217;28;20100;-58
2022/07/26 00:44:48;;;;;;;6.28;1.95;;;;;;;18.17;76.70;101230.88;5112723;28;20067;-58
2022/07/26 00:47:14;;;;;;;5.60;1.80;;;;;;;18.14;76.67;101237.13;5112941;28;20039;-58
2022/07/26 00:49:40;;;;;;;5.30;1.90;;;;;;;18.17;76.49;101236.16;5112649;28;20411;-58
2022/07/26 00:52:07;;;;;;;6.20;1.77;;;;;;;18.15;76.82;101233.56;5113016;28;20035;-59
2022/07/26 00:54:32;;;;;;;5.88;1.63;;;;;;;18.20;76.58;101231.59;5113121;28;20078;-58
2022/07/26 00:56:58;;;;;;;9.50;2.35;;;;;;;18.20;76.62;101234.22;5112357;28;20099;-58
2022/07/26 00:59:23;;;;;;;6.38;1.90;;;;;;;18.14;77.13;101236.28;5112730;28;20430;-58
2022/07/26 01:01:48;;;;;;;7.75;2.00;;;;;;;18.17;77.47;101225.56;5112838;28;20629;-58
2022/07/26 01:04:14;;;;;;;7.88;1.73;;;;;;;18.18;77.10;101222.84;5112818;28;20414;-58
2022/07/26 01:06:41;;;;;;;8.02;1.90;;;;;;;18.11;77.82;101228.44;5112725;28;20031;-58
2022/07/26 01:09:06;;;;;;;7.30;1.98;;;;;;;18.08;78.47;101226.75;5112929;28;20080;-58
2022/07/26 01:11:31;;;;;;;6.97;1.92;;;;;;;18.14;78.25;101223.88;5112531;28;20031;-58
2022/07/26 01:13:56;;;;;;;7.25;1.98;;;;;;;18.15;77.82;101228.28;5112615;28;20028;-58
2022/07/26 01:16:23;;;;;;;12.07;2.58;;;;;;;18.11;78.46;101224.00;5112217;28;20035;-57
2022/07/26 01:18:48;;;;;;;6.93;2.08;;;;;;;18.15;78.25;101228.28;5112558;28;20028;-58
2022/07/26 01:21:13;;;;;;;7.43;2.17;;;;;;;18.08;78.84;101217.03;5112504;28;20035;-57
2022/07/26 01:23:39;;;;;;;7.70;1.98;;;;;;;18.09;78.71;101218.75;5112438;28;20046;-57
2022/07/26 01:26:04;;;;;;;6.25;2.38;;;;;;;18.06;78.75;101218.00;5112197;28;20084;-58
2022/07/26 01:28:34;;;;;;;8.35;2.28;;;;;;;18.14;78.77;101217.72;5112327;28;20031;-58
2022/07/26 01:30:59;;;;;;;7.80;2.22;;;;;;;18.16;79.16;101221.19;5112113;28;20036;-57
2022/07/26 01:33:26;;;;;;;8.87;2.10;;;;;;;18.14;79.36;101205.34;5112202;28;20055;-57
2022/07/26 01:35:52;;;;;;;9.32;2.30;;;;;;;18.19;78.98;101211.31;5111877;28;20274;-57
2022/07/26 01:38:18;;;;;;;10.40;2.50;;;;;;;18.15;79.20;101207.06;5112362;28;20354;-58
2022/07/26 01:40:43;;;;;;;8.25;2.40;;;;;;;18.14;79.66;101213.28;5111997;28;20427;-58
2022/07/26 01:43:10;;;;;;;8.48;2.30;;;;;;;18.08;80.33;101210.88;5111210;28;20055;-57
2022/07/26 01:45:35;;;;;;;12.30;2.53;;;;;;;18.16;81.34;101213.25;5111956;28;20103;-57
2022/07/26 01:48:00;;;;;;;9.95;2.72;;;;;;;18.08;81.96;101216.16;5112076;28;20420;-58
2022/07/26 01:50:26;;;;;;;10.55;2.60;;;;;;;18.08;82.32;101227.63;5112018;28;20461;-58
2022/07/26 01:52:51;;;;;;;15.57;2.83;;;;;;;18.00;83.18;101221.78;5112045;28;20039;-58
2022/07/26 01:55:17;;;;;;;10.63;2.40;;;;;;;18.03;82.75;101226.06;5112136;28;20032;-58
2022/07/26 01:57:44;;;;;;;8.88;2.40;;;;;;;18.04;83.04;101217.19;5093983;28;20059;-58
2022/07/26 02:00:10;;;;;;;11.00;2.72;;;;;;;18.08;83.16;101221.47;5111748;28;20058;-57
2022/07/26 02:02:36;;;;;;;10.50;2.83;;;;;;;18.04;83.03;101222.50;5111839;28;20435;-57
2022/07/26 02:05:02;;;;;;;8.23;3.08;;;;;;;18.04;83.53;101217.19;5111791;28;20035;-58
2022/07/26 02:07:30;;;;;;;11.27;3.13;;;;;;;18.06;83.34;101226.81;5111912;28;20039;-59
2022/07/26 02:09:56;;;;;;;11.45;3.03;;;;;;;18.01;83.38;101230.56;5111318;28;20031;-59
2022/07/26 02:12:22;;;;;;;8.77;2.75;;;;;;;18.06;82.92;101223.31;5111733;28;20084;-57
2022/07/26 02:14:47;;;;;;;10.57;3.17;;;;;;;18.06;83.14;101228.59;5111733;28;20035;-58
2022/07/26 02:17:12;;;;;;;12.23;3.08;;;;;;;18.02;83.57;101225.19;5111687;28;20031;-58
2022/07/26 02:19:37;;;;;;;9.70;2.63;;;;;;;18.05;83.03;101225.09;5111932;28;20035;-58
2022/07/26 02:22:03;;;;;;;12.35;3.05;;;;;;;18.02;83.56;101222.56;5111936;28;20106;-58
2022/07/26 02:24:29;;;;;;;10.60;2.95;;;;;;;18.07;83.56;101225.03;5111771;28;20047;-59
2022/07/26 02:26:55;;;;;;;9.35;3.00;;;;;;;18.00;83.48;101229.72;5111430;28;20431;-58
2022/07/26 02:29:21;;;;;;;11.82;3.08;;;;;;;17.99;83.89;101225.34;5111617;28;20778;-58
2022/07/26 02:31:46;;;;;;;13.05;3.10;;;;;;;17.94;84.05;101237.88;5111349;28;20106;-58
2022/07/26 02:34:11;;;;;;;10.07;3.00;;;;;;;17.99;84.01;101232.44;5111693;28;20134;-58
2022/07/26 02:36:36;;;;;;;13.87;3.30;;;;;;;17.92;84.21;101242.38;5111631;28;20152;-58
2022/07/26 02:39:03;;;;;;;8.50;2.45;;;;;;;17.87;84.60;101232.88;5111544;28;20277;-58
2022/07/26 02:41:28;;;;;;;10.88;3.17;;;;;;;17.90;84.52;101243.34;5111498;28;20130;-58
2022/07/26 02:43:53;;;;;;;9.18;3.20;;;;;;;17.88;85.05;101240.75;5111320;28;20130;-58
2022/07/26 02:46:19;;;;;;;12.93;3.20;;;;;;;17.87;85.10;101249.63;5111486;28;20042;-58
2022/07/26 02:48:44;;;;;;;10.23;3.70;;;;;;;17.90;84.51;101246.00;5111602;28;20031;-56
2022/07/26 02:51:09;;;;;;;10.98;3.47;;;;;;;17.86;85.09;101242.59;5111487;28;20035;-56
2022/07/26 02:53:34;;;;;;;10.23;3.20;;;;;;;17.84;85.64;101243.56;5113396;28;20045;-57
2022/07/26 02:56:00;;;;;;;10.77;3.10;;;;;;;17.89;85.82;101249.56;5115240;28;20577;-57
2022/07/26 02:58:26;;;;;;;10.77;3.22;;;;;;;17.94;85.83;101250.25;5115014;28;20329;-58
2022/07/26 03:00:51;;;;;;;13.45;3.70;;;;;;;17.92;86.24;101252.09;5115326;28;20434;-57
2022/07/26 03:03:16;;;;;;;12.48;4.10;;;;;;;17.93;86.29;101248.53;5115143;28;20123;-57
2022/07/26 03:05:42;;;;;;;10.95;3.97;;;;;;;17.95;85.71;101257.28;5115063;28;20032;-57
2022/07/26 03:08:07;;;;;;;13.70;3.70;;;;;;;17.93;86.15;101259.13;5115232;28;20403;-56
2022/07/26 03:10:32;;;;;;;11.85;3.78;;;;;;;17.91;86.64;101250.38;5114955;28;20031;-57
2022/07/26 03:12:58;;;;;;;17.03;3.57;;;;;;;17.93;86.79;101260.00;5114815;28;20089;-57
2022/07/26 03:15:23;;;;;;;16.40;4.40;;;;;;;17.86;87.29;101261.13;5115117;28;20314;-57
2022/07/26 03:17:49;;;;;;;14.45;4.63;;;;;;;17.89;86.84;101263.66;5114931;28;20050;-58
2022/07/26 03:20:14;;;;;;;11.30;3.50;;;;;;;17.93;87.56;101270.59;5114889;28;20038;-57
2022/07/26 03:22:40;;;;;;;14.70;3.72;;;;;;;17.97;86.99;101274.00;5114959;28;20041;-58
2022/07/26 03:25:05;;;;;;;12.43;3.60;;;;;;;17.96;87.34;101265.19;5114337;28;20027;-57
2022/07/26 03:27:31;;;;;;;15.57;4.13;;;;;;;17.97;87.38;101271.34;5114364;28;20046;-58
2022/07/26 03:29:56;;;;;;;14.95;3.92;;;;;;;17.94;87.01;101266.16;5114675;28;20035;-58
2022/07/26 03:32:21;;;;;;;16.35;3.75;;;;;;;17.93;87.91;101275.00;5114323;28;20055;-57
2022/07/26 03:34:47;;;;;;;16.27;4.30;;;;;;;17.97;87.49;101272.22;5114555;28;20036;-58
2022/07/26 03:37:12;;;;;;;18.33;4.85;;;;;;;17.92;87.76;101287.38;5114541;28;20359;-58
2022/07/26 03:39:37;;;;;;;13.85;4.10;;;;;;;17.94;87.78;101282.91;5114405;28;20035;-58
2022/07/26 03:42:03;;;;;;;16.20;3.95;;;;;;;17.99;87.21;101290.69;5114375;28;20427;-58
2022/07/26 03:44:29;;;;;;;11.57;4.22;;;;;;;18.02;87.28;101293.19;5114288;28;20044;-58
2022/07/26 03:46:54;;;;;;;15.05;4.60;;;;;;;17.94;87.77;101289.97;5114487;28;20035;-57
2022/07/26 03:49:19;;;;;;;13.88;4.00;;;;;;;17.94;88.07;101285.56;5114346;28;20458;-57
2022/07/26 03:51:45;;;;;;;15.73;4.20;;;;;;;17.93;88.26;101285.59;5113838;28;20102;-57
2022/07/26 03:54:10;;;;;;;13.43;4.60;;;;;;;17.92;88.25;101284.75;5114175;28;20139;-58
2022/07/26 03:56:35;;;;;;;15.65;4.50;;;;;;;17.86;88.85;101284.97;5114093;28;20042;-58
2022/07/26 03:59:04;;;;;;;12.85;4.60;;;;;;;17.89;88.27;101294.56;5113929;28;20069;-58
2022/07/26 04:01:30;;;;;;;13.77;4.53;;;;;;;17.86;88.71;101294.69;5113773;28;20031;-58
2022/07/26 04:03:56;;;;;;;15.82;4.32;;;;;;;17.88;88.49;101293.72;5113775;28;20125;-58
2022/07/26 04:06:21;;;;;;;12.55;4.50;;;;;;;17.88;88.91;101301.66;5113407;28;20130;-58
2022/07/26 04:08:47;;;;;;;13.00;4.18;;;;;;;17.95;89.04;101299.66;5113962;28;20049;-58
2022/07/26 04:11:12;;;;;;;10.70;4.30;;;;;;;17.89;89.32;101299.88;5113749;28;20053;-57
2022/07/26 04:13:37;;;;;;;14.43;4.90;;;;;;;17.88;88.91;101296.34;5113781;28;20514;-57
2022/07/26 04:16:03;;;;;;;15.77;4.60;;;;;;;17.90;89.10;101291.88;5113385;28;20100;-57
2022/07/26 04:18:29;;;;;;;11.93;3.85;;;;;;;17.89;88.69;101291.94;5095684;28;20111;-57
2022/07/26 04:20:54;;;;;;;14.82;4.50;;;;;;;17.90;89.25;101291.00;5113762;28;20427;-57
2022/07/26 04:23:19;;;;;;;18.80;4.47;;;;;;;17.88;89.23;101293.72;5113672;28;20114;-58
2022/07/26 04:25:45;;;;;;;15.05;5.00;;;;;;;17.87;89.53;101307.00;5113204;28;20155;-58
2022/07/26 04:28:11;;;;;;;16.40;4.40;;;;;;;17.86;89.99;101311.44;5113710;28;20032;-58
2022/07/26 04:30:37;;;;;;;15.07;4.57;;;;;;;17.86;90.23;101310.56;5113301;28;20438;-59
2022/07/26 04:33:03;;;;;;;10.52;4.63;;;;;;;17.89;89.74;101307.81;5113259;28;20047;-58
2022/07/26 04:35:29;;;;;;;15.68;4.07;;;;;;;17.91;89.96;101314.78;5113445;28;20027;-57
2022/07/26 04:37:54;;;;;;;13.35;4.60;;;;;;;17.90;89.21;101310.41;5113188;28;20347;-59
2022/07/26 04:40:21;;;;;;;12.02;4.30;;;;;;;17.97;89.37;101313.72;5113348;28;20035;-58
2022/07/26 04:42:48;;;;;;;12.18;4.13;;;;;;;17.95;89.64;101315.56;5113080;28;20047;-58
2022/07/26 04:45:13;;;;;;;13.15;4.53;;;;;;;17.95;89.88;101311.13;5094788;28;20118;-56
2022/07/26 04:47:43;;;;;;;14.45;4.32;;;;;;;18.01;89.53;101312.66;5113083;28;20035;-57
2022/07/26 04:50:11;;;;;;;13.63;4.43;;;;;;;18.03;89.44;101314.34;5112898;28;20046;-57
2022/07/26 04:52:37;;;;;;;13.77;4.25;;;;;;;18.05;89.12;101311.63;5112840;28;20523;-58
2022/07/26 04:55:04;;;;;;;16.10;4.80;;;;;;;18.03;89.47;101321.41;5112925;28;20391;-58
2022/07/26 04:57:29;;;;;;;13.02;3.88;;;;;;;18.11;88.76;101323.78;5112411;28;20473;-58
2022/07/26 04:59:54;;;;;;;17.83;4.50;;;;;;;18.08;88.82;101327.41;5113005;28;20078;-57
2022/07/26 05:02:20;;;;;;;13.93;4.43;;;;;;;17.96;90.06;101328.72;5112639;28;20046;-57
2022/07/26 05:04:45;;;;;;;13.10;4.40;;;;;;;17.93;90.26;101331.50;5112834;28;20031;-57
2022/07/26 05:07:10;;;;;;;14.80;4.60;;;;;;;17.93;90.07;101330.63;5112194;28;20409;-57
2022/07/26 05:09:35;;;;;;;15.85;4.43;;;;;;;17.85;90.41;101327.38;5112686;28;20032;-55
2022/07/26 05:12:01;;;;;;;15.93;4.35;;;;;;;17.85;91.05;101325.59;5095460;28;20800;-58
2022/07/26 05:14:26;;;;;;;19.08;4.68;;;;;;;17.81;90.84;101329.28;5092387;28;20036;-58
2022/07/26 05:16:51;;;;;;;18.20;4.53;;;;;;;17.78;91.08;101313.50;5092170;28;20031;-57
2022/07/26 05:19:16;;;;;;;17.25;4.57;;;;;;;17.86;91.07;101329.09;5092230;28;20115;-57
2022/07/26 05:21:42;;;;;;;13.60;4.60;;;;;;;17.92;90.48;101337.69;5092390;28;20081;-58
2022/07/26 05:24:07;;;;;;;11.82;4.18;;;;;;;17.90;91.08;101343.97;5091926;28;20700;-58
2022/07/26 05:26:32;;;;;;;14.57;4.88;;;;;;;17.89;90.90;101332.50;5096360;28;20434;-57
2022/07/26 05:28:58;;;;;;;15.05;5.15;;;;;;;17.90;90.91;101343.97;5094885;28;20039;-57
2022/07/26 05:31:24;;;;;;;10.95;4.50;;;;;;;17.99;90.53;101359.53;5091854;28;20043;-57
2022/07/26 05:33:49;;;;;;;16.92;4.80;;;;;;;17.98;90.89;101357.81;5090627;28;20051;-58
2022/07/26 05:36:14;;;;;;;13.35;4.93;;;;;;;18.04;90.77;101352.28;5110705;28;20031;-58
2022/07/26 05:38:40;;;;;;;13.80;4.50;;;;;;;18.12;89.82;101352.88;5111694;28;20447;-58
2022/07/26 05:41:05;;;;;;;13.93;4.95;;;;;;;18.11;89.84;101353.78;5111035;28;20031;-58
2022/07/26 05:43:30;;;;;;;13.80;4.30;;;;;;;18.15;89.55;101362.50;5111815;28;20438;-58
2022/07/26 05:45:56;;;;;;;15.27;5.00;;;;;;;18.17;89.80;101358.00;5111917;28;20040;-59
2022/07/26 05:48:22;;;;;;;16.88;5.43;;;;;;;18.17;89.52;101358.00;5111976;28;20024;-59
2022/07/26 05:50:47;;;;;;;16.25;5.03;;;;;;;18.25;88.49;101367.41;5111801;28;20080;-58
2022/07/26 05:53:13;;;;;;;10.45;4.55;;;;;;;18.30;89.02;101370.75;5111840;28;20031;-59
2022/07/26 05:55:38;;;;;;;13.27;4.75;;;;;;;18.38;88.82;101373.09;5111749;28;20118;-58
2022/07/26 05:58:03;;;;;;;13.05;4.80;;;;;;;18.38;88.18;101368.66;5093651;28;20100;-58
2022/07/26 06:00:29;;;;;;;14.48;5.20;;;;;;;18.54;88.22;101373.38;5111938;28;20036;-59
2022/07/26 06:02:54;;;;;;;11.07;4.88;;;;;;;18.78;86.43;101378.66;5110958;28;20478;-59
2022/07/26 06:05:20;;;;;;;12.10;4.45;;;;;;;18.84;84.69;101372.25;5111477;28;20047;-59
2022/07/26 06:07:45;;;;;;;9.98;4.28;;;;;;;18.88;84.89;101373.84;5111460;28;20097;-59
2022/07/26 06:10:10;;;;;;;14.27;5.00;;;;;;;18.87;84.73;101373.94;5111778;28;20032;-59
2022/07/26 06:12:36;;;;;;;10.90;4.40;;;;;;;18.90;84.42;101369.34;5111592;28;20442;-59
2022/07/26 06:15:02;;;;;;;13.07;4.45;;;;;;;18.88;84.39;101379.16;5111490;28;20085;-51
2022/07/26 06:17:28;;;;;;;13.93;4.60;;;;;;;18.82;83.72;101370.59;5111984;28;20036;-58
2022/07/26 06:19:54;;;;;;;9.55;4.55;;;;;;;18.81;84.52;101376.81;5111914;28;20050;-59
2022/07/26 06:22:20;;;;;;;11.45;4.22;;;;;;;18.87;84.02;101377.44;5111898;28;20114;-59
2022/07/26 06:24:45;;;;;;;10.25;4.57;;;;;;;19.41;82.17;101386.72;5111173;28;20035;-58
2022/07/26 06:27:10;;;;;;;11.63;4.13;;;;;;;20.13;78.49;101384.53;5111573;28;20069;-59
2022/07/26 06:29:36;;;;;;;11.20;4.07;;;;;;;20.39;76.12;101378.09;5115636;28;20823;-59
2022/07/26 06:32:01;;;;;;;11.48;4.57;;;;;;;20.16;76.79;101379.97;5115750;28;20080;-60
2022/07/26 06:34:26;;;;;;;9.73;3.85;;;;;;;19.96;77.49;101374.66;5115803;28;20032;-59
2022/07/26 06:36:52;;;;;;;10.82;4.10;;;;;;;19.75;77.39;101381.75;5116046;28;20044;-58
2022/07/26 06:39:17;;;;;;;12.85;3.95;;;;;;;19.65;77.50;101387.53;5115748;28;20031;-59
2022/07/26 06:41:42;;;;;;;11.20;3.70;;;;;;;19.55;78.04;101394.19;5115563;28;20072;-58
2022/07/26 06:44:07;;;;;;;9.95;3.78;;;;;;;19.52;78.51;101395.16;5115604;28;20108;-59
2022/07/26 06:46:33;;;;;;;12.55;4.10;;;;;;;19.52;77.44;101395.16;5115498;28;20122;-57
2022/07/26 06:48:59;;;;;;;9.75;3.85;;;;;;;19.42;78.51;101391.97;5114208;28;20038;-59
2022/07/26 06:51:24;;;;;;;9.63;3.83;;;;;;;19.41;78.76;101392.91;5115401;28;20434;-60
2022/07/26 06:53:49;;;;;;;11.53;3.60;;;;;;;19.46;78.69;101398.03;5115265;28;20119;-59
2022/07/26 06:56:18;;;;;;;9.68;3.33;;;;;;;19.46;78.48;101403.34;5100311;28;20270;-57
2022/07/26 06:58:43;;;;;;;12.88;4.28;;;;;;;19.43;78.69;101398.16;5098441;28;20573;-58
2022/07/26 07:01:09;;;;;;;8.45;3.70;;;;;;;19.48;78.77;101404.16;5115050;28;20065;-58
2022/07/26 07:03:34;;;;;;;9.27;3.40;;;;;;;19.63;78.29;101410.63;5110633;28;20088;-58
2022/07/26 07:05:59;;;;;;;11.35;3.28;;;;;;;19.74;77.31;101414.56;5102799;28;20032;-58
2022/07/26 07:08:24;;;;;;;11.43;3.30;;;;;;;19.78;76.33;101408.19;5094886;28;20059;-59
2022/07/26 07:10:51;;;;;;;7.93;3.00;;;;;;;19.77;75.71;101409.13;5094481;28;20292;-57
2022/07/26 07:13:17;;;;;;;7.47;2.80;;;;;;;19.84;75.76;101419.50;5094728;28;20028;-58
2022/07/26 07:15:43;;;;;;;10.27;2.95;;;;;;;19.94;74.88;101418.16;5094865;28;20032;-59
2022/07/26 07:18:08;;;;;;;8.15;2.83;;;;;;;19.99;73.96;101419.69;5094756;28;20035;-57
2022/07/26 07:20:34;;;;;;;5.18;2.60;;;;;;;20.16;73.91;101413.66;5094095;28;20051;-58
2022/07/26 07:23:00;;;;;;;5.65;2.25;;;;;;;20.38;72.50;101421.56;5094587;28;20351;-57
2022/07/26 07:25:25;;;;;;;7.50;2.22;;;;;;;20.50;71.18;101415.69;5094340;28;20032;-58
2022/07/26 07:27:51;;;;;;;9.48;2.50;;;;;;;20.47;71.34;101419.34;5094394;28;20052;-59
2022/07/26 07:30:16;;;;;;;9.57;2.20;;;;;;;20.36;71.83;101421.63;5094010;28;20467;-59
2022/07/26 07:32:42;;;;;;;6.03;2.35;;;;;;;20.39;71.24;101421.50;5094270;28;20062;-59
2022/07/26 07:35:07;;;;;;;8.05;2.33;;;;;;;20.38;70.46;101426.88;5094407;28;20039;-58
2022/07/26 07:37:34;;;;;;;6.43;2.25;;;;;;;20.42;70.75;101423.16;5094205;28;20461;-58
2022/07/26 07:39:59;;;;;;;6.32;2.35;;;;;;;20.60;70.55;101422.34;5092988;28;20121;-59
2022/07/26 07:42:25;;;;;;;6.78;2.20;;;;;;;20.77;69.59;101422.44;5094142;28;20075;-59
2022/07/26 07:44:50;;;;;;;12.70;2.50;;;;;;;20.79;68.95;101427.63;5097392;28;20515;-58
2022/07/26 07:47:16;;;;;;;7.72;2.78;;;;;;;20.70;68.73;101428.94;5094059;28;20032;-59
2022/07/26 07:49:41;;;;;;;5.20;1.95;;;;;;;20.73;68.03;101434.13;5101801;28;20781;-59
2022/07/26 07:52:07;;;;;;;7.38;1.95;;;;;;;20.77;68.31;101433.06;5114299;28;20106;-59
2022/07/26 07:54:32;;;;;;;4.95;2.13;;;;;;;20.87;68.90;101422.84;5114164;28;20036;-59
2022/07/26 07:56:57;;;;;;;4.38;1.95;;;;;;;21.07;68.34;101428.09;5114230;28;20043;-59
2022/07/26 07:59:23;;;;;;;8.60;2.30;;;;;;;21.25;68.09;101428.19;5110585;28;20036;-59
2022/07/26 08:01:48;;;;;;;8.27;2.30;;;;;;;21.35;66.98;101426.78;5093924;28;20085;-59
2022/07/26 08:04:14;;;;;;;7.00;2.20;;;;;;;21.28;67.19;101426.22;5093632;28;20082;-60
2022/07/26 08:06:40;;;;;;;4.93;2.22;;;;;;;21.12;66.97;101435.88;5093482;28;20495;-58
2022/07/26 08:09:05;;;;;;;7.50;2.30;;;;;;;20.96;67.52;101441.03;5093590;28;20043;-59
2022/07/26 08:11:30;;;;;;;6.53;2.55;;;;;;;20.90;67.69;101440.47;5103802;28;20031;-59
2022/07/26 08:13:55;;;;;;;5.00;2.30;;;;;;;20.86;70.11;101450.38;5114046;28;20451;-58
2022/07/26 08:16:21;;;;;;;6.13;2.70;;;;;;;20.65;72.95;101446.91;5095730;28;20354;-58
2022/07/26 08:18:46;;;;;;;5.70;3.38;;;;;;;20.33;75.98;101453.63;5113911;28;20265;-58
2022/07/26 08:21:11;;;;;;;4.00;2.28;;;;;;;20.10;77.30;101457.28;5108704;28;20032;-57
2022/07/26 08:23:37;;;;;;;3.22;2.00;;;;;;;19.94;79.56;101464.19;5093377;28;20347;-57
2022/07/26 08:26:02;;;;;;;2.40;0.98;;;;;;;19.79;78.68;101472.81;5093124;28;20085;-57
2022/07/26 08:28:28;;;;;;;1.88;0.90;;;;;;;19.74;80.64;101475.66;5093085;28;20036;-58
2022/07/26 08:30:53;;;;;;;1.92;1.20;;;;;;;19.76;80.06;101471.13;5093273;28;20110;-60
2022/07/26 08:33:19;;;;;;;1.35;0.70;;;;;;;19.81;79.76;101484.22;5099192;28;20527;-58
2022/07/26 08:35:44;;;;;;;1.15;0.60;;;;;;;19.91;79.22;101484.72;5112553;28;20043;-59
2022/07/26 08:38:09;;;;;;;1.23;0.90;;;;;;;19.96;79.71;101482.72;5113180;28;20035;-58
2022/07/26 08:40:35;;;;;;;2.13;0.90;;;;;;;19.92;79.53;101465.19;5113298;28;20118;-59
2022/07/26 08:43:01;;;;;;;2.70;0.82;;;;;;;20.13;78.17;101488.19;5113125;28;20054;-59
2022/07/26 08:45:28;;;;;;;1.10;0.70;;;;;;;20.18;78.16;101480.91;5112819;28;20491;-59
2022/07/26 08:47:54;;;;;;;1.63;0.70;;;;;;;20.27;78.26;101487.59;5112857;28;20466;-58
2022/07/26 08:50:19;;;;;;;1.00;0.80;;;;;;;20.23;76.87;101486.88;5112508;28;20045;-59
2022/07/26 08:52:45;;;;;;;2.30;0.80;;;;;;;20.32;77.39;101490.91;5112373;28;20066;-59
2022/07/26 08:55:16;;;;;;;1.00;0.70;;;;;;;20.39;76.71;101485.31;5112860;28;20107;-59
2022/07/26 08:57:41;;;;;;;2.13;0.80;;;;;;;20.62;75.28;101488.72;5112506;28;20031;-59
2022/07/26 09:00:36;;;;;;;1.15;0.70;;;;;;;20.88;74.22;101499.06;5113173;28;20042;-58
2022/07/26 09:03:02;;;;;;;1.77;0.77;;;;;;;20.99;73.07;101490.56;5078104;28;20505;-60
2022/07/26 09:05:33;;;;;;;1.15;0.63;;;;;;;20.90;73.44;101489.22;5111787;28;20031;-59
2022/07/26 09:07:59;;;;;;;0.90;0.60;;;;;;;20.92;72.31;101492.69;5108167;28;20448;-59
2022/07/26 09:10:25;;;;;;;2.28;0.70;;;;;;;21.13;71.74;101491.66;5103860;28;20042;-59
2022/07/26 09:12:55;;;;;;;1.35;0.65;;;;;;;21.42;69.74;101494.78;5097196;28;20043;-60
2022/07/26 09:15:27;;;;;;;1.30;0.70;;;;;;;21.87;67.73;101497.84;5091895;28;20042;-60
2022/07/26 09:17:55;;;;;;;1.58;0.60;;;;;;;22.95;64.05;101491.38;5092130;28;20028;-59
2022/07/26 09:20:26;;;;;;;1.10;0.70;;;;;;;23.36;63.79;101497.09;5092241;28;20036;-59
2022/07/26 09:22:55;;;;;;;1.00;0.90;;;;;;;23.19;63.16;101505.19;5092291;28;20036;-60
2022/07/26 09:25:23;;;;;;;1.48;0.90;;;;;;;22.65;65.21;101509.88;5092377;28;20099;-59
2022/07/26 09:27:49;;;;;;;0.95;0.68;;;;;;;22.27;66.39;101517.19;5091863;28;20078;-60
2022/07/26 09:30:14;;;;;;;2.05;0.95;;;;;;;22.37;66.88;101520.25;5091482;28;20379;-60
2022/07/26 09:32:39;;;;;;;2.10;1.00;;;;;;;22.27;65.61;101521.66;5097928;28;20056;-59
2022/07/26 09:35:20;;;;;;;2.85;1.00;;;;;;;21.98;67.15;101521.31;5112334;28;20032;-59
2022/07/26 09:37:47;;;;;;;4.13;1.10;;;;;;;21.64;67.43;101519.44;5112379;28;20035;-58
2022/07/26 09:40:14;;;;;;;2.58;0.95;;;;;;;21.28;70.42;101527.41;5112459;28;20031;-59
2022/07/26 09:42:53;;;;;;;2.85;1.02;;;;;;;20.52;76.00;101530.84;5111632;28;20092;-60
2022/07/26 09:45:18;;;;;;;3.25;1.60;;;;;;;19.90;80.15;101536.13;5112062;28;20096;-59
2022/07/26 09:47:43;;;;;;;3.38;1.48;;;;;;;19.80;81.87;101536.50;5112478;28;20043;-60
2022/07/26 09:50:15;;;;;;;4.50;1.50;;;;;;;20.14;79.13;101535.97;5111854;28;20138;-60
2022/07/26 09:52:59;;;;;;;4.35;1.30;;;;;;;20.53;76.38;101537.00;5112349;28;20112;-60
2022/07/26 09:55:24;;;;;;;4.85;1.48;;;;;;;20.80;71.88;101541.97;5111999;28;20037;-60
2022/07/26 09:57:51;;;;;;;3.45;1.58;;;;;;;21.17;71.79;101532.31;5112160;28;20665;-59
2022/07/26 10:00:17;;;;;;;4.50;1.52;;;;;;;21.34;69.72;101542.19;5112102;28;20057;-59
2022/07/26 10:02:42;;;;;;;3.15;1.50;;;;;;;21.44;68.60;101546.19;5111076;28;20058;-59
2022/07/26 10:05:08;;;;;;;4.18;1.58;;;;;;;21.50;68.49;101540.53;5095083;28;20062;-60
2022/07/26 10:07:33;;;;;;;4.10;1.30;;;;;;;21.63;67.58;101540.84;5091202;28;20035;-59
2022/07/26 10:10:11;;;;;;;3.85;1.55;;;;;;;21.70;67.95;101542.25;5094142;28;20028;-59
2022/07/26 10:12:37;;;;;;;3.47;1.20;;;;;;;21.59;67.47;101556.09;5091589;28;20028;-59
2022/07/26 10:15:03;;;;;;;4.68;1.40;;;;;;;21.34;67.62;101552.84;5091204;28;20541;-59
2022/07/26 10:17:28;;;;;;;2.90;1.20;;;;;;;21.38;68.34;101552.66;5091490;28;20039;-59
2022/07/26 10:20:00;;;;;;;3.47;1.10;;;;;;;21.18;68.90;101561.53;5095483;28;20404;-59
2022/07/26 10:22:25;;;;;;;1.95;0.90;;;;;;;20.91;69.93;101565.44;5111623;28;20036;-58
2022/07/26 10:24:52;;;;;;;1.67;0.70;;;;;;;20.91;70.51;101570.78;5107377;28;20110;-60
2022/07/26 10:27:40;;;;;;;3.08;0.80;;;;;;;20.98;70.05;101566.88;5090970;28;20036;-60
2022/07/26 10:30:26;;;;;;;0.82;0.60;;;;;;;20.93;70.36;101571.56;5091233;28;20105;-60
2022/07/26 10:33:00;;;;;;;2.85;0.70;;;;;;;21.01;69.58;101569.41;5090894;28;20051;-59
2022/07/26 10:35:43;;;;;;;1.08;0.70;;;;;;;21.16;68.55;101575.84;5091666;28;20029;-59
2022/07/26 10:38:20;;;;;;;2.55;0.82;;;;;;;21.41;67.43;101568.47;5091434;28;20625;-59
2022/07/26 10:40:56;;;;;;;1.27;0.80;;;;;;;21.70;65.65;101572.41;5091442;28;20031;-59
2022/07/26 10:43:22;;;;;;;3.42;1.00;;;;;;;22.01;65.09;101576.28;5091270;28;20340;-58
2022/07/26 10:46:12;;;;;;;1.33;0.60;;;;;;;22.34;63.18;101574.59;5091233;28;20113;-59
2022/07/26 10:49:02;;;;;;;1.35;0.70;;;;;;;22.74;60.93;101575.22;5091327;28;20173;-58
2022/07/26 10:51:38;;;;;;;1.70;0.60;;;;;;;22.90;58.99;101584.16;5090979;28;20036;-59
2022/07/26 10:54:09;;;;;;;2.15;0.95;;;;;;;23.02;57.61;101588.00;5090919;28;20439;-59
2022/07/26 10:56:35;;;;;;;1.27;0.60;;;;;;;23.07;57.09;101580.59;5091230;28;20058;-60
2022/07/26 10:59:02;;;;;;;1.33;0.50;;;;;;;22.95;57.23;101587.47;5091015;28;20036;-59
2022/07/26 11:01:39;;;;;;;4.00;0.80;;;;;;;22.98;58.07;101589.13;5090965;28;20359;-58
2022/07/26 11:04:16;;;;;;;1.80;0.60;;;;;;;23.03;57.28;101593.25;5090891;28;20032;-57
2022/07/26 11:06:41;;;;;;;0.77;0.50;;;;;;;23.08;56.74;101601.88;5091022;28;20040;-59
2022/07/26 11:09:11;;;;;;;1.45;0.60;;;;;;;23.15;57.51;101599.75;5091181;28;20075;-58
2022/07/26 11:11:36;;;;;;;0.60;0.45;;;;;;;23.07;56.47;101599.28;5091040;28;20032;-60
2022/07/26 11:14:07;;;;;;;1.20;0.52;;;;;;;23.03;57.11;101601.25;5091652;28;20081;-58
2022/07/26 11:16:39;;;;;;;3.35;0.70;;;;;;;22.95;58.65;101608.81;5094585;28;20465;-58
2022/07/26 11:19:16;;;;;;;1.40;0.77;;;;;;;22.66;61.48;101614.78;5094517;28;20424;-57